sensor_id;sensor_type;location;lat;lon;timestamp;P1;durP1;ratioP1;P2;durP2;ratioP2
6825;SDS011;3451;52.476;13.316;2022-10-13T00:01:51;12.60;;;5.77;;
6825;SDS011;3451;52.476;13.316;2022-10-13T00:04:18;12.53;;;5.70;;
6825;SDS011;3451;52.476;13.316;2022-10-13T00:06:44;14.53;;;6.23;;
6825;SDS011;3451;52.476;13.316;2022-10-13T00:09:10;10.77;;;5.67;;
6825;SDS011;3451;52.476;13.316;2022-10-13T00:11:37;11.93;;;5.60;;
6825;SDS011;3451;52.476;13.316;2022-10-13T00:14:03;13.80;;;5.63;;
6825;SDS011;3451;52.476;13.316;2022-10-13T00:16:30;14.77;;;5.93;;
6825;SDS011;3451;52.476;13.316;2022-10-13T00:18:57;13.70;;;6.27;;
6825;SDS011;3451;52.476;13.316;2022-10-13T00:21:24;12.27;;;6.07;;
6825;SDS011;3451;52.476;13.316;2022-10-13T00:23:51;15.73;;;6.00;;
6825;SDS011;3451;52.476;13.316;2022-10-13T00:26:19;14.03;;;5.90;;
6825;SDS011;3451;52.476;13.316;2022-10-13T00:28:45;11.83;;;6.13;;
6825;SDS011;3451;52.476;13.316;2022-10-13T00:31:18;13.17;;;5.90;;
6825;SDS011;3451;52.476;13.316;2022-10-13T00:33:45;11.67;;;5.77;;
6825;SDS011;3451;52.476;13.316;2022-10-13T00:36:11;11.30;;;5.63;;
6825;SDS011;3451;52.476;13.316;2022-10-13T00:38:37;12.83;;;5.77;;
6825;SDS011;3451;52.476;13.316;2022-10-13T00:41:04;13.00;;;6.00;;
6825;SDS011;3451;52.476;13.316;2022-10-13T00:46:12;11.20;;;5.93;;
6825;SDS011;3451;52.476;13.316;2022-10-13T00:48:38;13.90;;;5.63;;
6825;SDS011;3451;52.476;13.316;2022-10-13T00:51:05;12.80;;;5.80;;
6825;SDS011;3451;52.476;13.316;2022-10-13T00:53:32;11.23;;;5.27;;
6825;SDS011;3451;52.476;13.316;2022-10-13T00:55:59;13.07;;;6.27;;
6825;SDS011;3451;52.476;13.316;2022-10-13T00:58:26;13.23;;;6.40;;
6825;SDS011;3451;52.476;13.316;2022-10-13T01:00:56;10.93;;;5.53;;
6825;SDS011;3451;52.476;13.316;2022-10-13T01:06:40;11.07;;;5.60;;
6825;SDS011;3451;52.476;13.316;2022-10-13T01:09:06;15.47;;;6.10;;
6825;SDS011;3451;52.476;13.316;2022-10-13T01:11:36;10.90;;;5.90;;
6825;SDS011;3451;52.476;13.316;2022-10-13T01:14:12;11.23;;;5.73;;
6825;SDS011;3451;52.476;13.316;2022-10-13T01:16:46;14.00;;;5.67;;
6825;SDS011;3451;52.476;13.316;2022-10-13T01:19:19;17.43;;;6.47;;
6825;SDS011;3451;52.476;13.316;2022-10-13T01:21:55;14.17;;;6.23;;
6825;SDS011;3451;52.476;13.316;2022-10-13T01:27:00;22.10;;;6.20;;
6825;SDS011;3451;52.476;13.316;2022-10-13T01:29:43;9.70;;;5.70;;
6825;SDS011;3451;52.476;13.316;2022-10-13T01:34:52;14.90;;;5.97;;
6825;SDS011;3451;52.476;13.316;2022-10-13T01:39:53;11.43;;;5.63;;
6825;SDS011;3451;52.476;13.316;2022-10-13T01:42:24;14.50;;;6.30;;
6825;SDS011;3451;52.476;13.316;2022-10-13T01:44:57;13.33;;;6.47;;
6825;SDS011;3451;52.476;13.316;2022-10-13T01:47:24;14.87;;;6.57;;
6825;SDS011;3451;52.476;13.316;2022-10-13T01:49:51;13.40;;;6.00;;
6825;SDS011;3451;52.476;13.316;2022-10-13T01:52:24;11.47;;;5.97;;
6825;SDS011;3451;52.476;13.316;2022-10-13T01:54:53;14.70;;;6.17;;
6825;SDS011;3451;52.476;13.316;2022-10-13T01:57:30;14.77;;;6.40;;
6825;SDS011;3451;52.476;13.316;2022-10-13T02:00:01;16.33;;;6.47;;
6825;SDS011;3451;52.476;13.316;2022-10-13T02:08:00;11.93;;;6.27;;
6825;SDS011;3451;52.476;13.316;2022-10-13T02:10:37;10.70;;;5.77;;
6825;SDS011;3451;52.476;13.316;2022-10-13T02:13:05;13.77;;;5.93;;
6825;SDS011;3451;52.476;13.316;2022-10-13T02:15:35;13.17;;;5.80;;
6825;SDS011;3451;52.476;13.316;2022-10-13T02:18:02;11.93;;;5.97;;
6825;SDS011;3451;52.476;13.316;2022-10-13T02:20:29;11.43;;;6.17;;
6825;SDS011;3451;52.476;13.316;2022-10-13T02:23:03;15.23;;;6.60;;
6825;SDS011;3451;52.476;13.316;2022-10-13T02:25:32;16.23;;;6.57;;
6825;SDS011;3451;52.476;13.316;2022-10-13T02:27:58;13.43;;;6.70;;
6825;SDS011;3451;52.476;13.316;2022-10-13T02:30:26;15.37;;;6.50;;
6825;SDS011;3451;52.476;13.316;2022-10-13T02:32:53;15.37;;;7.07;;
6825;SDS011;3451;52.476;13.316;2022-10-13T02:35:19;11.87;;;6.30;;
6825;SDS011;3451;52.476;13.316;2022-10-13T02:37:45;16.60;;;6.40;;
6825;SDS011;3451;52.476;13.316;2022-10-13T02:40:12;18.17;;;6.70;;
6825;SDS011;3451;52.476;13.316;2022-10-13T02:42:38;12.90;;;6.57;;
6825;SDS011;3451;52.476;13.316;2022-10-13T02:45:04;14.10;;;6.03;;
6825;SDS011;3451;52.476;13.316;2022-10-13T02:47:31;11.70;;;6.33;;
6825;SDS011;3451;52.476;13.316;2022-10-13T02:49:57;13.63;;;6.40;;
6825;SDS011;3451;52.476;13.316;2022-10-13T02:52:23;10.87;;;6.37;;
6825;SDS011;3451;52.476;13.316;2022-10-13T02:54:50;15.03;;;6.43;;
6825;SDS011;3451;52.476;13.316;2022-10-13T02:57:17;13.87;;;6.40;;
6825;SDS011;3451;52.476;13.316;2022-10-13T02:59:43;17.63;;;7.00;;
6825;SDS011;3451;52.476;13.316;2022-10-13T03:02:09;12.13;;;6.20;;
6825;SDS011;3451;52.476;13.316;2022-10-13T03:04:35;12.77;;;5.93;;
6825;SDS011;3451;52.476;13.316;2022-10-13T03:07:02;12.67;;;6.23;;
6825;SDS011;3451;52.476;13.316;2022-10-13T03:09:28;10.73;;;6.00;;
6825;SDS011;3451;52.476;13.316;2022-10-13T03:11:54;9.90;;;6.17;;
6825;SDS011;3451;52.476;13.316;2022-10-13T03:14:20;14.47;;;6.47;;
6825;SDS011;3451;52.476;13.316;2022-10-13T03:16:47;17.50;;;6.73;;
6825;SDS011;3451;52.476;13.316;2022-10-13T03:19:13;14.50;;;6.80;;
6825;SDS011;3451;52.476;13.316;2022-10-13T03:21:40;14.23;;;6.90;;
6825;SDS011;3451;52.476;13.316;2022-10-13T03:24:06;11.83;;;6.90;;
6825;SDS011;3451;52.476;13.316;2022-10-13T03:26:33;14.00;;;6.50;;
6825;SDS011;3451;52.476;13.316;2022-10-13T03:29:00;12.87;;;6.80;;
6825;SDS011;3451;52.476;13.316;2022-10-13T03:31:26;14.83;;;6.43;;
6825;SDS011;3451;52.476;13.316;2022-10-13T03:33:52;14.80;;;7.63;;
6825;SDS011;3451;52.476;13.316;2022-10-13T03:36:19;15.47;;;6.90;;
6825;SDS011;3451;52.476;13.316;2022-10-13T03:38:45;13.03;;;6.87;;
6825;SDS011;3451;52.476;13.316;2022-10-13T03:41:15;15.50;;;7.10;;
6825;SDS011;3451;52.476;13.316;2022-10-13T03:43:43;16.27;;;7.27;;
6825;SDS011;3451;52.476;13.316;2022-10-13T03:46:09;12.83;;;6.37;;
6825;SDS011;3451;52.476;13.316;2022-10-13T03:48:36;14.70;;;6.83;;
6825;SDS011;3451;52.476;13.316;2022-10-13T03:51:04;12.70;;;6.83;;
6825;SDS011;3451;52.476;13.316;2022-10-13T03:53:30;10.60;;;6.80;;
6825;SDS011;3451;52.476;13.316;2022-10-13T03:55:57;13.57;;;6.93;;
6825;SDS011;3451;52.476;13.316;2022-10-13T03:58:23;12.97;;;6.43;;
6825;SDS011;3451;52.476;13.316;2022-10-13T04:00:50;14.37;;;7.30;;
6825;SDS011;3451;52.476;13.316;2022-10-13T04:03:17;14.17;;;6.90;;
6825;SDS011;3451;52.476;13.316;2022-10-13T04:05:43;17.77;;;7.03;;
6825;SDS011;3451;52.476;13.316;2022-10-13T04:08:09;12.33;;;7.17;;
6825;SDS011;3451;52.476;13.316;2022-10-13T04:10:36;16.63;;;7.60;;
6825;SDS011;3451;52.476;13.316;2022-10-13T04:13:03;11.27;;;7.10;;
6825;SDS011;3451;52.476;13.316;2022-10-13T04:15:29;14.43;;;7.53;;
6825;SDS011;3451;52.476;13.316;2022-10-13T04:17:55;11.50;;;7.27;;
6825;SDS011;3451;52.476;13.316;2022-10-13T04:20:21;23.83;;;7.43;;
6825;SDS011;3451;52.476;13.316;2022-10-13T04:22:48;13.90;;;6.60;;
6825;SDS011;3451;52.476;13.316;2022-10-13T04:25:14;16.70;;;7.50;;
6825;SDS011;3451;52.476;13.316;2022-10-13T04:27:40;14.50;;;6.87;;
6825;SDS011;3451;52.476;13.316;2022-10-13T04:30:07;16.47;;;8.20;;
6825;SDS011;3451;52.476;13.316;2022-10-13T04:32:33;14.77;;;7.77;;
6825;SDS011;3451;52.476;13.316;2022-10-13T04:34:59;14.67;;;7.33;;
6825;SDS011;3451;52.476;13.316;2022-10-13T04:37:26;14.50;;;8.43;;
6825;SDS011;3451;52.476;13.316;2022-10-13T04:39:52;14.60;;;7.17;;
6825;SDS011;3451;52.476;13.316;2022-10-13T04:42:18;16.53;;;7.63;;
6825;SDS011;3451;52.476;13.316;2022-10-13T04:44:45;13.70;;;7.70;;
6825;SDS011;3451;52.476;13.316;2022-10-13T04:47:11;15.17;;;7.67;;
6825;SDS011;3451;52.476;13.316;2022-10-13T04:49:37;15.87;;;7.90;;
6825;SDS011;3451;52.476;13.316;2022-10-13T04:52:03;16.93;;;7.40;;
6825;SDS011;3451;52.476;13.316;2022-10-13T04:54:30;14.67;;;8.07;;
6825;SDS011;3451;52.476;13.316;2022-10-13T04:56:56;14.20;;;6.67;;
6825;SDS011;3451;52.476;13.316;2022-10-13T04:59:22;18.93;;;7.83;;
6825;SDS011;3451;52.476;13.316;2022-10-13T05:01:49;18.17;;;8.03;;
6825;SDS011;3451;52.476;13.316;2022-10-13T05:04:15;15.03;;;7.33;;
6825;SDS011;3451;52.476;13.316;2022-10-13T05:06:41;17.07;;;8.37;;
6825;SDS011;3451;52.476;13.316;2022-10-13T05:09:27;12.83;;;8.13;;
6825;SDS011;3451;52.476;13.316;2022-10-13T05:11:54;15.70;;;8.43;;
6825;SDS011;3451;52.476;13.316;2022-10-13T05:14:20;11.33;;;7.70;;
6825;SDS011;3451;52.476;13.316;2022-10-13T05:16:47;16.57;;;7.90;;
6825;SDS011;3451;52.476;13.316;2022-10-13T05:19:14;16.17;;;8.23;;
6825;SDS011;3451;52.476;13.316;2022-10-13T05:21:40;17.17;;;8.50;;
6825;SDS011;3451;52.476;13.316;2022-10-13T05:24:12;15.00;;;8.57;;
6825;SDS011;3451;52.476;13.316;2022-10-13T05:26:38;14.27;;;8.17;;
6825;SDS011;3451;52.476;13.316;2022-10-13T05:29:05;13.43;;;8.07;;
6825;SDS011;3451;52.476;13.316;2022-10-13T05:31:32;12.33;;;8.07;;
6825;SDS011;3451;52.476;13.316;2022-10-13T05:33:58;20.63;;;8.03;;
6825;SDS011;3451;52.476;13.316;2022-10-13T05:36:26;18.93;;;8.33;;
6825;SDS011;3451;52.476;13.316;2022-10-13T05:38:54;14.53;;;8.73;;
6825;SDS011;3451;52.476;13.316;2022-10-13T05:41:20;18.93;;;9.57;;
6825;SDS011;3451;52.476;13.316;2022-10-13T05:43:47;19.60;;;8.57;;
6825;SDS011;3451;52.476;13.316;2022-10-13T05:46:13;16.37;;;9.70;;
6825;SDS011;3451;52.476;13.316;2022-10-13T05:48:40;21.63;;;9.07;;
6825;SDS011;3451;52.476;13.316;2022-10-13T05:51:09;23.67;;;9.63;;
6825;SDS011;3451;52.476;13.316;2022-10-13T05:53:36;16.43;;;9.60;;
6825;SDS011;3451;52.476;13.316;2022-10-13T05:56:05;20.07;;;9.77;;
6825;SDS011;3451;52.476;13.316;2022-10-13T05:58:34;16.20;;;9.53;;
6825;SDS011;3451;52.476;13.316;2022-10-13T06:01:04;21.47;;;9.80;;
6825;SDS011;3451;52.476;13.316;2022-10-13T06:03:30;28.20;;;10.47;;
6825;SDS011;3451;52.476;13.316;2022-10-13T06:05:57;20.87;;;10.00;;
6825;SDS011;3451;52.476;13.316;2022-10-13T06:08:23;19.80;;;9.97;;
6825;SDS011;3451;52.476;13.316;2022-10-13T06:10:49;21.70;;;9.80;;
6825;SDS011;3451;52.476;13.316;2022-10-13T06:13:16;20.40;;;9.30;;
6825;SDS011;3451;52.476;13.316;2022-10-13T06:15:42;19.43;;;10.30;;
6825;SDS011;3451;52.476;13.316;2022-10-13T06:18:08;21.93;;;9.63;;
6825;SDS011;3451;52.476;13.316;2022-10-13T06:20:35;23.07;;;9.90;;
6825;SDS011;3451;52.476;13.316;2022-10-13T06:23:01;20.43;;;10.07;;
6825;SDS011;3451;52.476;13.316;2022-10-13T06:25:27;18.37;;;10.23;;
6825;SDS011;3451;52.476;13.316;2022-10-13T06:27:57;17.40;;;9.70;;
6825;SDS011;3451;52.476;13.316;2022-10-13T06:30:25;21.93;;;11.20;;
6825;SDS011;3451;52.476;13.316;2022-10-13T06:32:54;20.00;;;10.27;;
6825;SDS011;3451;52.476;13.316;2022-10-13T06:35:21;14.73;;;9.43;;
6825;SDS011;3451;52.476;13.316;2022-10-13T06:37:48;19.13;;;10.07;;
6825;SDS011;3451;52.476;13.316;2022-10-13T06:40:15;18.13;;;10.07;;
6825;SDS011;3451;52.476;13.316;2022-10-13T06:42:41;20.50;;;9.93;;
6825;SDS011;3451;52.476;13.316;2022-10-13T06:45:08;21.83;;;10.43;;
6825;SDS011;3451;52.476;13.316;2022-10-13T06:47:34;15.77;;;9.93;;
6825;SDS011;3451;52.476;13.316;2022-10-13T06:50:00;18.77;;;11.17;;
6825;SDS011;3451;52.476;13.316;2022-10-13T06:52:27;21.33;;;10.47;;
6825;SDS011;3451;52.476;13.316;2022-10-13T06:54:53;22.77;;;10.93;;
6825;SDS011;3451;52.476;13.316;2022-10-13T06:57:19;25.70;;;11.40;;
6825;SDS011;3451;52.476;13.316;2022-10-13T06:59:45;19.47;;;11.13;;
6825;SDS011;3451;52.476;13.316;2022-10-13T07:02:12;22.23;;;10.10;;
6825;SDS011;3451;52.476;13.316;2022-10-13T07:04:38;20.97;;;11.17;;
6825;SDS011;3451;52.476;13.316;2022-10-13T07:07:05;18.87;;;10.70;;
6825;SDS011;3451;52.476;13.316;2022-10-13T07:09:32;20.97;;;10.70;;
6825;SDS011;3451;52.476;13.316;2022-10-13T07:11:58;21.90;;;11.37;;
6825;SDS011;3451;52.476;13.316;2022-10-13T07:14:24;17.20;;;10.80;;
6825;SDS011;3451;52.476;13.316;2022-10-13T07:16:50;19.17;;;11.43;;
6825;SDS011;3451;52.476;13.316;2022-10-13T07:19:16;19.00;;;11.23;;
6825;SDS011;3451;52.476;13.316;2022-10-13T07:21:43;22.43;;;11.33;;
6825;SDS011;3451;52.476;13.316;2022-10-13T07:24:10;22.47;;;12.43;;
6825;SDS011;3451;52.476;13.316;2022-10-13T07:26:36;21.37;;;11.43;;
6825;SDS011;3451;52.476;13.316;2022-10-13T07:29:02;21.43;;;11.53;;
6825;SDS011;3451;52.476;13.316;2022-10-13T07:31:29;19.07;;;11.27;;
6825;SDS011;3451;52.476;13.316;2022-10-13T07:33:57;22.00;;;11.40;;
6825;SDS011;3451;52.476;13.316;2022-10-13T07:36:23;26.57;;;11.80;;
6825;SDS011;3451;52.476;13.316;2022-10-13T07:38:50;24.73;;;12.17;;
6825;SDS011;3451;52.476;13.316;2022-10-13T07:41:16;20.23;;;12.03;;
6825;SDS011;3451;52.476;13.316;2022-10-13T07:43:42;19.87;;;12.50;;
6825;SDS011;3451;52.476;13.316;2022-10-13T07:46:09;23.37;;;11.47;;
6825;SDS011;3451;52.476;13.316;2022-10-13T07:48:36;22.90;;;11.77;;
6825;SDS011;3451;52.476;13.316;2022-10-13T07:51:06;18.87;;;11.37;;
6825;SDS011;3451;52.476;13.316;2022-10-13T07:53:33;24.13;;;11.17;;
6825;SDS011;3451;52.476;13.316;2022-10-13T07:56:01;19.13;;;11.50;;
6825;SDS011;3451;52.476;13.316;2022-10-13T07:58:27;24.20;;;11.10;;
6825;SDS011;3451;52.476;13.316;2022-10-13T08:01:00;20.73;;;11.77;;
6825;SDS011;3451;52.476;13.316;2022-10-13T08:03:27;21.37;;;11.20;;
6825;SDS011;3451;52.476;13.316;2022-10-13T08:05:53;17.47;;;10.50;;
6825;SDS011;3451;52.476;13.316;2022-10-13T08:08:20;19.57;;;11.17;;
6825;SDS011;3451;52.476;13.316;2022-10-13T08:10:46;18.40;;;10.77;;
6825;SDS011;3451;52.476;13.316;2022-10-13T08:13:14;17.23;;;11.03;;
6825;SDS011;3451;52.476;13.316;2022-10-13T08:15:40;19.77;;;10.60;;
6825;SDS011;3451;52.476;13.316;2022-10-13T08:18:07;20.17;;;11.27;;
6825;SDS011;3451;52.476;13.316;2022-10-13T08:20:34;17.67;;;10.17;;
6825;SDS011;3451;52.476;13.316;2022-10-13T08:23:08;17.93;;;10.57;;
6825;SDS011;3451;52.476;13.316;2022-10-13T08:25:36;20.83;;;10.30;;
6825;SDS011;3451;52.476;13.316;2022-10-13T08:28:04;18.63;;;10.80;;
6825;SDS011;3451;52.476;13.316;2022-10-13T08:30:30;17.83;;;10.70;;
6825;SDS011;3451;52.476;13.316;2022-10-13T08:32:57;19.23;;;10.17;;
6825;SDS011;3451;52.476;13.316;2022-10-13T08:35:23;17.63;;;10.70;;
6825;SDS011;3451;52.476;13.316;2022-10-13T08:37:50;17.50;;;10.23;;
6825;SDS011;3451;52.476;13.316;2022-10-13T08:40:17;19.40;;;10.63;;
6825;SDS011;3451;52.476;13.316;2022-10-13T08:42:44;19.73;;;11.20;;
6825;SDS011;3451;52.476;13.316;2022-10-13T08:45:18;18.87;;;10.43;;
6825;SDS011;3451;52.476;13.316;2022-10-13T08:48:06;17.83;;;10.17;;
6825;SDS011;3451;52.476;13.316;2022-10-13T08:50:36;15.23;;;9.90;;
6825;SDS011;3451;52.476;13.316;2022-10-13T08:53:08;16.27;;;10.40;;
6825;SDS011;3451;52.476;13.316;2022-10-13T08:55:40;18.00;;;10.50;;
6825;SDS011;3451;52.476;13.316;2022-10-13T08:58:16;16.77;;;10.40;;
6825;SDS011;3451;52.476;13.316;2022-10-13T09:00:44;16.77;;;11.00;;
6825;SDS011;3451;52.476;13.316;2022-10-13T09:03:17;16.47;;;10.97;;
6825;SDS011;3451;52.476;13.316;2022-10-13T09:05:47;16.13;;;10.00;;
6825;SDS011;3451;52.476;13.316;2022-10-13T09:08:20;24.47;;;10.83;;
6825;SDS011;3451;52.476;13.316;2022-10-13T09:10:48;19.63;;;11.20;;
6825;SDS011;3451;52.476;13.316;2022-10-13T09:13:14;21.27;;;11.40;;
6825;SDS011;3451;52.476;13.316;2022-10-13T09:15:44;23.37;;;11.43;;
6825;SDS011;3451;52.476;13.316;2022-10-13T09:18:11;20.13;;;11.23;;
6825;SDS011;3451;52.476;13.316;2022-10-13T09:20:38;21.43;;;11.40;;
6825;SDS011;3451;52.476;13.316;2022-10-13T09:23:05;18.90;;;10.97;;
6825;SDS011;3451;52.476;13.316;2022-10-13T09:25:38;18.00;;;11.70;;
6825;SDS011;3451;52.476;13.316;2022-10-13T09:28:09;19.33;;;10.73;;
6825;SDS011;3451;52.476;13.316;2022-10-13T09:30:37;22.53;;;11.93;;
6825;SDS011;3451;52.476;13.316;2022-10-13T09:35:30;17.37;;;11.47;;
6825;SDS011;3451;52.476;13.316;2022-10-13T09:38:02;24.97;;;12.10;;
6825;SDS011;3451;52.476;13.316;2022-10-13T09:40:29;18.23;;;12.30;;
6825;SDS011;3451;52.476;13.316;2022-10-13T09:42:59;23.43;;;12.27;;
6825;SDS011;3451;52.476;13.316;2022-10-13T09:45:26;23.97;;;12.60;;
6825;SDS011;3451;52.476;13.316;2022-10-13T09:47:54;19.83;;;12.03;;
6825;SDS011;3451;52.476;13.316;2022-10-13T09:50:24;20.50;;;11.87;;
6825;SDS011;3451;52.476;13.316;2022-10-13T09:53:36;22.30;;;12.83;;
6825;SDS011;3451;52.476;13.316;2022-10-13T09:55:43;19.40;;;12.17;;
6825;SDS011;3451;52.476;13.316;2022-10-13T09:58:18;20.73;;;11.50;;
6825;SDS011;3451;52.476;13.316;2022-10-13T10:00:48;16.03;;;11.57;;
6825;SDS011;3451;52.476;13.316;2022-10-13T10:03:23;18.80;;;11.37;;
6825;SDS011;3451;52.476;13.316;2022-10-13T10:05:52;19.10;;;12.60;;
6825;SDS011;3451;52.476;13.316;2022-10-13T10:11:21;18.87;;;11.90;;
6825;SDS011;3451;52.476;13.316;2022-10-13T10:13:49;18.70;;;11.60;;
6825;SDS011;3451;52.476;13.316;2022-10-13T10:16:23;20.17;;;12.03;;
6825;SDS011;3451;52.476;13.316;2022-10-13T10:18:58;20.83;;;12.10;;
6825;SDS011;3451;52.476;13.316;2022-10-13T10:24:14;18.23;;;12.07;;
6825;SDS011;3451;52.476;13.316;2022-10-13T10:26:46;20.90;;;11.60;;
6825;SDS011;3451;52.476;13.316;2022-10-13T10:29:23;20.07;;;11.27;;
6825;SDS011;3451;52.476;13.316;2022-10-13T10:31:54;19.20;;;11.97;;
6825;SDS011;3451;52.476;13.316;2022-10-13T10:34:26;24.23;;;12.17;;
6825;SDS011;3451;52.476;13.316;2022-10-13T10:37:02;20.87;;;12.83;;
6825;SDS011;3451;52.476;13.316;2022-10-13T10:39:35;18.03;;;11.77;;
6825;SDS011;3451;52.476;13.316;2022-10-13T10:42:10;17.40;;;11.37;;
6825;SDS011;3451;52.476;13.316;2022-10-13T10:44:41;17.03;;;11.27;;
6825;SDS011;3451;52.476;13.316;2022-10-13T10:47:22;18.50;;;11.13;;
6825;SDS011;3451;52.476;13.316;2022-10-13T10:49:51;19.90;;;11.87;;
6825;SDS011;3451;52.476;13.316;2022-10-13T10:52:26;16.50;;;10.90;;
6825;SDS011;3451;52.476;13.316;2022-10-13T10:54:57;13.70;;;9.97;;
6825;SDS011;3451;52.476;13.316;2022-10-13T10:57:49;19.13;;;11.07;;
6825;SDS011;3451;52.476;13.316;2022-10-13T11:00:17;19.47;;;11.40;;
6825;SDS011;3451;52.476;13.316;2022-10-13T11:05:14;21.17;;;12.03;;
6825;SDS011;3451;52.476;13.316;2022-10-13T11:10:15;17.40;;;10.23;;
6825;SDS011;3451;52.476;13.316;2022-10-13T11:12:46;14.37;;;9.93;;
6825;SDS011;3451;52.476;13.316;2022-10-13T11:15:15;16.70;;;10.27;;
6825;SDS011;3451;52.476;13.316;2022-10-13T11:17:43;13.80;;;10.60;;
6825;SDS011;3451;52.476;13.316;2022-10-13T11:22:42;17.17;;;9.73;;
6825;SDS011;3451;52.476;13.316;2022-10-13T11:28:43;17.20;;;11.03;;
6825;SDS011;3451;52.476;13.316;2022-10-13T11:30:54;16.07;;;10.57;;
6825;SDS011;3451;52.476;13.316;2022-10-13T11:38:50;20.27;;;10.17;;
6825;SDS011;3451;52.476;13.316;2022-10-13T11:41:22;18.77;;;9.90;;
6825;SDS011;3451;52.476;13.316;2022-10-13T11:43:52;15.30;;;9.40;;
6825;SDS011;3451;52.476;13.316;2022-10-13T11:46:26;13.70;;;9.00;;
6825;SDS011;3451;52.476;13.316;2022-10-13T11:51:46;15.87;;;9.27;;
6825;SDS011;3451;52.476;13.316;2022-10-13T11:54:59;13.43;;;8.67;;
6825;SDS011;3451;52.476;13.316;2022-10-13T11:57:16;12.93;;;7.67;;
6825;SDS011;3451;52.476;13.316;2022-10-13T11:59:46;18.70;;;8.37;;
6825;SDS011;3451;52.476;13.316;2022-10-13T12:02:14;11.50;;;7.07;;
6825;SDS011;3451;52.476;13.316;2022-10-13T12:04:57;12.63;;;7.50;;
6825;SDS011;3451;52.476;13.316;2022-10-13T12:07:24;16.07;;;8.10;;
6825;SDS011;3451;52.476;13.316;2022-10-13T12:09:52;13.53;;;7.40;;
6825;SDS011;3451;52.476;13.316;2022-10-13T12:12:20;11.60;;;7.00;;
6825;SDS011;3451;52.476;13.316;2022-10-13T12:14:48;13.77;;;7.30;;
6825;SDS011;3451;52.476;13.316;2022-10-13T12:19:50;16.10;;;7.50;;
6825;SDS011;3451;52.476;13.316;2022-10-13T12:22:17;13.83;;;6.63;;
6825;SDS011;3451;52.476;13.316;2022-10-13T12:24:54;11.63;;;6.20;;
6825;SDS011;3451;52.476;13.316;2022-10-13T12:27:21;13.27;;;7.23;;
6825;SDS011;3451;52.476;13.316;2022-10-13T12:29:47;13.17;;;6.30;;
6825;SDS011;3451;52.476;13.316;2022-10-13T12:32:17;12.10;;;6.43;;
6825;SDS011;3451;52.476;13.316;2022-10-13T12:34:44;9.50;;;5.87;;
6825;SDS011;3451;52.476;13.316;2022-10-13T12:37:12;13.67;;;6.77;;
6825;SDS011;3451;52.476;13.316;2022-10-13T12:39:39;16.63;;;7.43;;
6825;SDS011;3451;52.476;13.316;2022-10-13T12:42:06;13.10;;;6.90;;
6825;SDS011;3451;52.476;13.316;2022-10-13T12:44:33;13.97;;;6.67;;
6825;SDS011;3451;52.476;13.316;2022-10-13T12:46:59;11.23;;;7.07;;
6825;SDS011;3451;52.476;13.316;2022-10-13T12:49:28;8.33;;;6.30;;
6825;SDS011;3451;52.476;13.316;2022-10-13T12:52:10;16.20;;;6.27;;
6825;SDS011;3451;52.476;13.316;2022-10-13T12:54:45;11.97;;;6.10;;
6825;SDS011;3451;52.476;13.316;2022-10-13T12:57:15;13.10;;;6.80;;
6825;SDS011;3451;52.476;13.316;2022-10-13T12:59:43;13.00;;;6.57;;
6825;SDS011;3451;52.476;13.316;2022-10-13T13:02:17;12.80;;;6.63;;
6825;SDS011;3451;52.476;13.316;2022-10-13T13:04:44;11.47;;;6.83;;
6825;SDS011;3451;52.476;13.316;2022-10-13T13:09:59;8.37;;;6.30;;
6825;SDS011;3451;52.476;13.316;2022-10-13T13:12:26;15.57;;;6.43;;
6825;SDS011;3451;52.476;13.316;2022-10-13T13:14:53;9.00;;;6.53;;
6825;SDS011;3451;52.476;13.316;2022-10-13T13:17:22;11.83;;;5.97;;
6825;SDS011;3451;52.476;13.316;2022-10-13T13:20:25;10.30;;;5.87;;
6825;SDS011;3451;52.476;13.316;2022-10-13T13:22:52;13.30;;;6.40;;
6825;SDS011;3451;52.476;13.316;2022-10-13T13:25:18;11.33;;;6.63;;
6825;SDS011;3451;52.476;13.316;2022-10-13T13:27:45;12.37;;;6.40;;
6825;SDS011;3451;52.476;13.316;2022-10-13T13:30:11;10.47;;;6.17;;
6825;SDS011;3451;52.476;13.316;2022-10-13T13:32:38;14.63;;;6.47;;
6825;SDS011;3451;52.476;13.316;2022-10-13T13:35:05;11.53;;;6.10;;
6825;SDS011;3451;52.476;13.316;2022-10-13T13:40:01;14.97;;;6.97;;
6825;SDS011;3451;52.476;13.316;2022-10-13T13:42:27;10.53;;;6.30;;
6825;SDS011;3451;52.476;13.316;2022-10-13T13:44:53;12.23;;;6.87;;
6825;SDS011;3451;52.476;13.316;2022-10-13T13:47:23;11.43;;;6.23;;
6825;SDS011;3451;52.476;13.316;2022-10-13T13:49:51;8.90;;;6.40;;
6825;SDS011;3451;52.476;13.316;2022-10-13T13:52:19;15.83;;;6.90;;
6825;SDS011;3451;52.476;13.316;2022-10-13T13:54:45;9.97;;;6.73;;
6825;SDS011;3451;52.476;13.316;2022-10-13T13:57:12;15.93;;;6.93;;
6825;SDS011;3451;52.476;13.316;2022-10-13T13:59:39;12.60;;;6.53;;
6825;SDS011;3451;52.476;13.316;2022-10-13T14:02:06;13.80;;;6.20;;
6825;SDS011;3451;52.476;13.316;2022-10-13T14:04:32;12.47;;;6.37;;
6825;SDS011;3451;52.476;13.316;2022-10-13T14:06:59;14.30;;;6.40;;
6825;SDS011;3451;52.476;13.316;2022-10-13T14:09:26;11.27;;;6.53;;
6825;SDS011;3451;52.476;13.316;2022-10-13T14:11:52;13.33;;;6.83;;
6825;SDS011;3451;52.476;13.316;2022-10-13T14:14:19;11.97;;;6.97;;
6825;SDS011;3451;52.476;13.316;2022-10-13T14:16:45;18.77;;;7.03;;
6825;SDS011;3451;52.476;13.316;2022-10-13T14:19:11;11.57;;;6.87;;
6825;SDS011;3451;52.476;13.316;2022-10-13T14:21:37;11.33;;;6.90;;
6825;SDS011;3451;52.476;13.316;2022-10-13T14:24:04;11.73;;;6.63;;
6825;SDS011;3451;52.476;13.316;2022-10-13T14:26:30;12.50;;;6.90;;
6825;SDS011;3451;52.476;13.316;2022-10-13T14:28:57;10.77;;;6.63;;
6825;SDS011;3451;52.476;13.316;2022-10-13T14:31:23;11.83;;;7.00;;
6825;SDS011;3451;52.476;13.316;2022-10-13T14:33:49;14.27;;;7.00;;
6825;SDS011;3451;52.476;13.316;2022-10-13T14:36:19;11.77;;;6.77;;
6825;SDS011;3451;52.476;13.316;2022-10-13T14:38:45;9.83;;;6.80;;
6825;SDS011;3451;52.476;13.316;2022-10-13T14:41:12;10.70;;;6.63;;
6825;SDS011;3451;52.476;13.316;2022-10-13T14:43:40;11.47;;;6.77;;
6825;SDS011;3451;52.476;13.316;2022-10-13T14:46:06;10.87;;;6.17;;
6825;SDS011;3451;52.476;13.316;2022-10-13T14:48:33;10.47;;;6.20;;
6825;SDS011;3451;52.476;13.316;2022-10-13T14:51:02;13.93;;;6.53;;
6825;SDS011;3451;52.476;13.316;2022-10-13T14:53:30;9.00;;;5.93;;
6825;SDS011;3451;52.476;13.316;2022-10-13T14:55:57;10.83;;;6.57;;
6825;SDS011;3451;52.476;13.316;2022-10-13T14:58:23;14.47;;;7.37;;
6825;SDS011;3451;52.476;13.316;2022-10-13T15:00:49;13.57;;;6.53;;
6825;SDS011;3451;52.476;13.316;2022-10-13T15:03:16;15.17;;;6.77;;
6825;SDS011;3451;52.476;13.316;2022-10-13T15:05:43;12.03;;;6.63;;
6825;SDS011;3451;52.476;13.316;2022-10-13T15:08:09;14.20;;;7.03;;
6825;SDS011;3451;52.476;13.316;2022-10-13T15:10:35;11.97;;;7.27;;
6825;SDS011;3451;52.476;13.316;2022-10-13T15:13:02;11.73;;;6.70;;
6825;SDS011;3451;52.476;13.316;2022-10-13T15:15:28;11.37;;;6.73;;
6825;SDS011;3451;52.476;13.316;2022-10-13T15:17:54;18.40;;;7.30;;
6825;SDS011;3451;52.476;13.316;2022-10-13T15:20:20;13.33;;;7.57;;
6825;SDS011;3451;52.476;13.316;2022-10-13T15:22:47;11.77;;;6.97;;
6825;SDS011;3451;52.476;13.316;2022-10-13T15:25:13;14.50;;;6.97;;
6825;SDS011;3451;52.476;13.316;2022-10-13T15:27:39;14.70;;;7.23;;
6825;SDS011;3451;52.476;13.316;2022-10-13T15:30:07;15.87;;;6.83;;
6825;SDS011;3451;52.476;13.316;2022-10-13T15:32:34;16.33;;;7.20;;
6825;SDS011;3451;52.476;13.316;2022-10-13T15:35:00;12.93;;;6.47;;
6825;SDS011;3451;52.476;13.316;2022-10-13T15:37:27;10.20;;;7.03;;
6825;SDS011;3451;52.476;13.316;2022-10-13T15:39:53;15.07;;;6.43;;
6825;SDS011;3451;52.476;13.316;2022-10-13T15:42:22;17.57;;;6.90;;
6825;SDS011;3451;52.476;13.316;2022-10-13T15:44:49;30.13;;;7.40;;